createdAt,value
2018-09-23T00:01:23.792Z,14.43
2018-09-23T00:03:35.991Z,14.45
2018-09-23T00:05:48.266Z,14.48
2018-09-23T00:08:00.489Z,14.42
2018-09-23T00:10:12.744Z,14.42
2018-09-23T00:12:24.963Z,14.44
2018-09-23T00:14:37.209Z,14.46
2018-09-23T00:16:49.390Z,14.49
2018-09-23T00:19:01.583Z,14.47
2018-09-23T00:21:13.862Z,14.46
2018-09-23T00:23:26.055Z,14.42
2018-09-23T00:25:38.318Z,14.40
2018-09-23T00:27:50.508Z,14.41
2018-09-23T00:30:02.774Z,14.30
2018-09-23T00:32:14.946Z,14.30
2018-09-23T00:34:27.191Z,14.24
2018-09-23T00:36:39.393Z,14.13
2018-09-23T00:38:51.593Z,14.12
2018-09-23T00:41:03.898Z,14.13
2018-09-23T00:43:16.111Z,14.06
2018-09-23T00:45:28.395Z,14.02
2018-09-23T00:47:40.647Z,13.99
2018-09-23T00:49:52.872Z,13.92
2018-09-23T00:52:05.159Z,13.79
2018-09-23T00:54:17.390Z,13.79
2018-09-23T00:56:29.631Z,13.74
2018-09-23T00:58:41.794Z,13.65
2018-09-23T01:00:54.103Z,13.52
2018-09-23T01:03:06.416Z,13.49
2018-09-23T01:05:18.666Z,13.52
2018-09-23T01:07:30.917Z,13.59
2018-09-23T01:09:43.109Z,13.62
2018-09-23T01:11:55.354Z,13.56
2018-09-23T01:14:07.736Z,13.58
2018-09-23T01:16:19.966Z,13.61
2018-09-23T01:18:32.134Z,13.63
2018-09-23T01:20:45.076Z,13.59
2018-09-23T01:22:57.301Z,13.57
2018-09-23T01:25:09.499Z,13.59
2018-09-23T01:27:21.783Z,13.63
2018-09-23T01:29:33.975Z,13.64
2018-09-23T01:31:46.204Z,13.64
2018-09-23T01:33:58.372Z,13.63
2018-09-23T01:36:10.633Z,13.64
2018-09-23T01:38:22.872Z,13.62
2018-09-23T01:40:35.049Z,13.64
2018-09-23T01:42:47.296Z,13.62
2018-09-23T01:44:59.462Z,13.59
2018-09-23T01:47:11.788Z,13.55
2018-09-23T01:49:24.075Z,13.52
2018-09-23T01:51:36.292Z,13.49
2018-09-23T01:53:48.524Z,13.37
2018-09-23T01:56:00.753Z,13.32
2018-09-23T01:58:12.927Z,13.28
2018-09-23T02:00:25.215Z,13.26
2018-09-23T02:02:37.438Z,13.28
2018-09-23T02:04:49.668Z,13.31
2018-09-23T02:07:01.891Z,13.32
2018-09-23T02:09:14.068Z,13.29
2018-09-23T02:11:26.251Z,13.24
2018-09-23T02:13:38.527Z,13.28
2018-09-23T02:15:50.710Z,13.17
2018-09-23T02:18:02.927Z,13.07
2018-09-23T02:20:15.150Z,13.07
2018-09-23T02:22:27.386Z,13.02
2018-09-23T02:24:39.564Z,12.99
2018-09-23T02:26:51.787Z,12.97
2018-09-23T02:29:04.022Z,12.92
2018-09-23T02:31:16.279Z,12.92
2018-09-23T02:33:28.483Z,12.93
2018-09-23T02:35:40.663Z,12.93
2018-09-23T02:37:54.081Z,12.94
2018-09-23T02:40:06.345Z,12.88
2018-09-23T02:42:18.542Z,12.89
2018-09-23T02:44:30.872Z,12.89
2018-09-23T02:46:43.051Z,12.89
2018-09-23T02:48:55.281Z,12.80
2018-09-23T02:51:07.449Z,12.83
2018-09-23T02:53:19.610Z,12.80
2018-09-23T02:55:31.806Z,12.84
2018-09-23T02:57:43.975Z,12.89
2018-09-23T02:59:56.174Z,12.92
2018-09-23T03:02:08.371Z,12.93
2018-09-23T03:04:20.600Z,12.95
2018-09-23T03:06:32.828Z,12.93
2018-09-23T03:08:45.039Z,12.92
2018-09-23T03:10:57.310Z,12.94
2018-09-23T03:13:09.498Z,12.98
2018-09-23T03:15:21.691Z,13.03
2018-09-23T03:17:33.864Z,13.01
2018-09-23T03:19:46.067Z,12.96
2018-09-23T03:21:58.244Z,12.98
2018-09-23T03:24:10.452Z,12.98
2018-09-23T03:26:22.740Z,12.99
2018-09-23T03:28:34.919Z,13.03
2018-09-23T03:30:47.130Z,12.99
2018-09-23T03:32:59.306Z,12.97
2018-09-23T03:35:11.515Z,13.02
2018-09-23T03:37:23.691Z,13.07
2018-09-23T03:39:35.850Z,13.04
2018-09-23T03:41:48.058Z,13.03
2018-09-23T03:44:00.267Z,13.05
2018-09-23T03:46:12.471Z,13.10
2018-09-23T03:48:24.663Z,13.14
2018-09-23T03:50:36.881Z,13.14
2018-09-23T03:52:49.087Z,13.19
2018-09-23T03:55:01.263Z,13.18
2018-09-23T03:57:13.455Z,13.18
2018-09-23T03:59:25.666Z,13.22
2018-09-23T04:01:37.980Z,13.21
2018-09-23T04:03:50.138Z,13.21
2018-09-23T04:06:02.330Z,13.25
2018-09-23T04:08:14.559Z,13.26
2018-09-23T04:10:26.766Z,13.30
2018-09-23T04:12:38.967Z,13.34
2018-09-23T04:14:51.122Z,13.38
2018-09-23T04:17:03.343Z,13.41
2018-09-23T04:19:15.548Z,13.45
2018-09-23T04:21:27.715Z,13.49
2018-09-23T04:23:39.902Z,13.52
2018-09-23T04:25:52.087Z,13.59
2018-09-23T04:28:04.299Z,13.67
2018-09-23T04:30:17.620Z,13.72
2018-09-23T04:32:29.836Z,13.77
2018-09-23T04:34:42.032Z,13.82
2018-09-23T04:36:54.227Z,13.84
2018-09-23T04:39:08.047Z,13.89
2018-09-23T04:41:20.234Z,13.89
2018-09-23T04:43:32.420Z,13.94
2018-09-23T04:45:44.620Z,13.99
2018-09-23T04:47:56.827Z,14.03
2018-09-23T04:50:09.027Z,14.05
2018-09-23T04:52:21.270Z,14.10
2018-09-23T04:54:33.453Z,14.05
2018-09-23T04:56:45.675Z,14.12
2018-09-23T04:58:57.863Z,14.12
2018-09-23T05:01:10.055Z,14.15
2018-09-23T05:03:22.255Z,14.20
2018-09-23T05:05:34.494Z,14.21
2018-09-23T05:07:46.705Z,14.22
2018-09-23T05:09:58.945Z,14.26
2018-09-23T05:12:11.123Z,14.26
2018-09-23T05:14:23.372Z,14.29
2018-09-23T05:16:35.618Z,14.31
2018-09-23T05:18:47.858Z,14.32
2018-09-23T05:21:00.086Z,14.35
2018-09-23T05:23:12.306Z,14.38
2018-09-23T05:25:24.551Z,14.47
2018-09-23T05:27:36.840Z,14.49
2018-09-23T05:29:49.068Z,14.52
2018-09-23T05:32:01.297Z,14.52
2018-09-23T05:34:13.520Z,14.54
2018-09-23T05:36:25.751Z,14.55
2018-09-23T05:38:37.940Z,14.61
2018-09-23T05:40:50.172Z,14.66
2018-09-23T05:43:02.415Z,14.70
2018-09-23T05:45:14.639Z,14.72
2018-09-23T05:47:26.898Z,14.80
2018-09-23T05:49:39.107Z,14.81
2018-09-23T05:51:51.367Z,14.83
2018-09-23T05:54:03.589Z,14.86
2018-09-23T05:56:15.833Z,14.92
2018-09-23T05:58:28.047Z,14.96
2018-09-23T06:00:43.239Z,14.98
2018-09-23T06:02:55.474Z,15.04
2018-09-23T06:05:07.698Z,15.07
2018-09-23T06:07:19.944Z,15.15
2018-09-23T06:09:32.167Z,15.17
2018-09-23T06:11:44.428Z,15.23
2018-09-23T06:13:56.746Z,15.31
2018-09-23T06:16:09.002Z,15.37
2018-09-23T06:18:21.240Z,15.38
2018-09-23T06:20:33.512Z,15.38
2018-09-23T06:22:45.830Z,15.42
2018-09-23T06:24:58.019Z,15.43
2018-09-23T06:27:10.310Z,15.48
2018-09-23T06:29:22.563Z,15.51
2018-09-23T06:31:34.797Z,15.56
2018-09-23T06:33:47.883Z,15.61
2018-09-23T06:36:00.116Z,15.66
2018-09-23T06:38:12.368Z,15.68
2018-09-23T06:40:24.635Z,15.70
2018-09-23T06:42:37.002Z,15.80
2018-09-23T06:44:49.241Z,15.87
2018-09-23T06:47:01.489Z,15.96
2018-09-23T06:49:13.744Z,16.02
2018-09-23T06:51:26.015Z,16.12
2018-09-23T06:53:38.288Z,16.19
2018-09-23T06:55:50.545Z,16.28
2018-09-23T06:58:02.823Z,16.41
2018-09-23T07:00:15.051Z,16.52
2018-09-23T07:02:27.264Z,16.68
2018-09-23T07:04:39.550Z,16.81
2018-09-23T07:06:51.766Z,16.95
2018-09-23T07:09:05.094Z,17.07
2018-09-23T07:11:17.351Z,17.22
2018-09-23T07:13:29.568Z,17.38
2018-09-23T07:15:41.819Z,17.52
2018-09-23T07:17:54.035Z,17.60
2018-09-23T07:20:06.348Z,17.74
2018-09-23T07:22:18.614Z,17.87
2018-09-23T07:24:30.896Z,18.03
2018-09-23T07:26:43.122Z,18.18
2018-09-23T07:28:55.451Z,18.40
2018-09-23T07:31:07.794Z,18.93
2018-09-23T07:33:20.071Z,19.29
2018-09-23T07:35:32.483Z,19.40
2018-09-23T07:37:44.702Z,19.45
2018-09-23T07:39:56.966Z,19.47
2018-09-23T07:42:09.255Z,19.56
2018-09-23T07:44:21.482Z,19.60
2018-09-23T07:46:33.816Z,19.76
2018-09-23T07:48:46.021Z,19.85
2018-09-23T07:50:58.241Z,19.88
2018-09-23T07:53:10.588Z,19.94
2018-09-23T07:55:22.824Z,19.97
2018-09-23T07:57:35.183Z,20.08
2018-09-23T07:59:47.463Z,20.40
2018-09-23T08:01:59.713Z,20.92
2018-09-23T08:04:12.000Z,21.28
2018-09-23T08:06:26.122Z,21.39
2018-09-23T08:08:38.364Z,21.42
2018-09-23T08:10:50.700Z,21.33
2018-09-23T08:13:03.220Z,21.22
2018-09-23T08:15:15.390Z,21.16
2018-09-23T08:17:27.617Z,21.02
2018-09-23T08:19:39.950Z,20.90
2018-09-23T08:21:54.178Z,20.80
2018-09-23T08:24:06.556Z,20.74
2018-09-23T08:26:18.819Z,20.61
2018-09-23T08:28:31.042Z,20.55
2018-09-23T08:30:43.319Z,20.63
2018-09-23T08:32:55.617Z,20.72
2018-09-23T08:35:07.871Z,20.75
2018-09-23T08:37:22.989Z,21.04
2018-09-23T08:39:35.178Z,21.37
2018-09-23T08:41:47.517Z,21.47
2018-09-23T08:43:59.733Z,21.41
2018-09-23T08:46:11.961Z,21.32
2018-09-23T08:48:24.363Z,21.26
2018-09-23T08:50:40.693Z,21.20
2018-09-23T08:52:52.991Z,21.08
2018-09-23T08:55:05.233Z,21.03
2018-09-23T08:57:17.496Z,20.97
2018-09-23T08:59:30.626Z,20.90
2018-09-23T09:01:42.899Z,20.85
2018-09-23T09:03:55.136Z,20.76
2018-09-23T09:06:07.611Z,20.69
2018-09-23T09:08:21.747Z,20.60
2018-09-23T09:10:34.184Z,20.56
2018-09-23T09:12:46.439Z,20.52
2018-09-23T09:14:58.659Z,20.47
2018-09-23T09:17:10.917Z,20.40
2018-09-23T09:19:23.119Z,20.36
2018-09-23T09:21:35.412Z,20.31
2018-09-23T09:23:47.651Z,20.28
2018-09-23T09:26:00.975Z,20.30
2018-09-23T09:28:13.193Z,20.30
2018-09-23T09:30:25.467Z,20.29
2018-09-23T09:32:37.691Z,20.28
2018-09-23T09:34:49.926Z,20.30
2018-09-23T09:37:02.167Z,20.31
2018-09-23T09:39:14.399Z,20.33
2018-09-23T09:41:26.639Z,20.36
2018-09-23T09:43:39.008Z,20.30
2018-09-23T09:45:51.273Z,20.32
2018-09-23T09:48:03.536Z,20.29
2018-09-23T09:50:15.795Z,20.28
2018-09-23T09:52:28.035Z,20.33
2018-09-23T09:54:40.255Z,20.38
2018-09-23T09:56:52.487Z,20.43
2018-09-23T09:59:04.851Z,20.48
2018-09-23T10:01:17.090Z,20.53
2018-09-23T10:03:29.374Z,20.60
2018-09-23T10:05:41.648Z,20.63
2018-09-23T10:07:53.866Z,20.69
2018-09-23T10:10:06.170Z,20.74
2018-09-23T10:12:18.399Z,20.78
2018-09-23T10:14:30.646Z,20.83
2018-09-23T10:16:42.921Z,20.89
2018-09-23T10:18:55.220Z,20.93
2018-09-23T10:21:07.447Z,21.03
2018-09-23T10:23:19.811Z,21.05
2018-09-23T10:25:31.972Z,21.10
2018-09-23T10:27:44.158Z,21.13
2018-09-23T10:29:56.396Z,21.18
2018-09-23T10:32:08.637Z,21.22
2018-09-23T10:34:20.894Z,21.35
2018-09-23T10:36:33.166Z,21.48
2018-09-23T10:38:45.448Z,21.64
2018-09-23T10:40:57.719Z,21.79
2018-09-23T10:43:09.964Z,21.87
2018-09-23T10:45:22.202Z,21.89
2018-09-23T10:47:34.480Z,21.89
2018-09-23T10:49:46.668Z,21.92
2018-09-23T10:51:58.932Z,21.97
2018-09-23T10:54:15.115Z,22.01
2018-09-23T10:56:28.420Z,22.03
2018-09-23T10:58:40.743Z,22.06
2018-09-23T11:00:53.920Z,22.11
2018-09-23T11:03:07.299Z,22.13
2018-09-23T11:05:19.589Z,22.17
2018-09-23T11:07:32.880Z,22.20
2018-09-23T11:09:45.166Z,22.22
2018-09-23T11:11:58.489Z,22.26
2018-09-23T11:14:10.974Z,22.32
2018-09-23T11:16:23.220Z,22.40
2018-09-23T11:18:35.567Z,22.45
2018-09-23T11:20:47.787Z,22.54
2018-09-23T11:23:00.090Z,22.60
2018-09-23T11:25:12.307Z,22.63
2018-09-23T11:27:24.517Z,22.70
2018-09-23T11:29:36.812Z,22.80
2018-09-23T11:31:49.085Z,22.90
2018-09-23T11:34:01.600Z,22.93
2018-09-23T11:36:14.135Z,22.97
2018-09-23T11:38:26.427Z,23.05
2018-09-23T11:40:38.675Z,23.12
2018-09-23T11:42:50.920Z,23.22
2018-09-23T11:45:03.317Z,23.33
2018-09-23T11:47:22.073Z,23.45
2018-09-23T11:49:34.344Z,23.55
2018-09-23T11:51:46.678Z,23.65
2018-09-23T11:53:58.912Z,23.68
2018-09-23T11:56:11.603Z,23.76
2018-09-23T11:58:23.872Z,23.92
2018-09-23T12:00:37.050Z,24.05
2018-09-23T12:02:53.794Z,24.18
2018-09-23T12:05:08.153Z,24.19
2018-09-23T12:07:20.726Z,24.16
2018-09-23T12:09:32.980Z,24.14
2018-09-23T12:11:45.259Z,24.19
2018-09-23T12:13:57.485Z,24.22
2018-09-23T12:16:09.727Z,24.24
2018-09-23T12:18:21.949Z,24.21
2018-09-23T12:20:34.220Z,24.22
2018-09-23T12:22:46.445Z,24.19
2018-09-23T12:24:58.673Z,24.22
2018-09-23T12:27:11.000Z,24.19
2018-09-23T12:29:23.279Z,24.17
2018-09-23T12:31:35.551Z,24.09
2018-09-23T12:33:47.835Z,24.13
2018-09-23T12:36:04.248Z,24.21
2018-09-23T12:38:16.523Z,24.31
2018-09-23T12:40:28.836Z,24.31
2018-09-23T12:42:41.096Z,24.33
2018-09-23T12:44:53.326Z,24.34
2018-09-23T12:47:05.558Z,24.34
2018-09-23T12:49:17.867Z,24.30
2018-09-23T12:51:30.128Z,24.31
2018-09-23T12:53:42.438Z,24.32
2018-09-23T12:55:54.709Z,24.33
2018-09-23T12:58:06.946Z,24.36
2018-09-23T13:00:19.267Z,24.33
2018-09-23T13:02:31.502Z,24.39
2018-09-23T13:04:45.845Z,24.50
2018-09-23T13:06:58.271Z,24.52
2018-09-23T13:09:13.516Z,24.49
2018-09-23T13:11:25.791Z,24.42
2018-09-23T13:13:38.041Z,24.42
2018-09-23T13:15:50.299Z,24.42
2018-09-23T13:18:02.634Z,24.45
2018-09-23T13:20:14.915Z,24.58
2018-09-23T13:22:28.194Z,24.75
2018-09-23T13:24:40.455Z,24.88
2018-09-23T13:26:52.746Z,24.96
2018-09-23T13:29:05.291Z,24.98
2018-09-23T13:31:17.899Z,24.99
2018-09-23T13:33:30.256Z,25.01
2018-09-23T13:35:42.498Z,24.96
2018-09-23T13:37:54.723Z,24.95
2018-09-23T13:40:07.126Z,24.91
2018-09-23T13:42:21.340Z,24.85
2018-09-23T13:44:33.676Z,24.82
2018-09-23T13:46:45.991Z,24.77
2018-09-23T13:48:58.287Z,24.69
2018-09-23T13:51:10.596Z,24.62
2018-09-23T13:53:22.816Z,24.58
2018-09-23T13:55:35.106Z,24.54
2018-09-23T13:57:47.338Z,24.53
2018-09-23T14:00:00.446Z,24.54
2018-09-23T14:02:12.760Z,24.59
2018-09-23T14:04:25.011Z,24.65
2018-09-23T14:06:37.326Z,24.67
2018-09-23T14:08:49.544Z,24.65
2018-09-23T14:11:02.854Z,24.66
2018-09-23T14:13:15.071Z,24.65
2018-09-23T14:15:27.302Z,24.65
2018-09-23T14:17:40.534Z,24.58
2018-09-23T14:20:00.648Z,24.59
2018-09-23T14:22:12.906Z,24.55
2018-09-23T14:24:25.132Z,24.51
2018-09-23T14:26:37.392Z,24.45
2018-09-23T14:28:49.659Z,24.38
2018-09-23T14:31:01.904Z,24.34
2018-09-23T14:33:14.178Z,24.32
2018-09-23T14:35:26.453Z,24.29
2018-09-23T14:37:38.704Z,24.34
2018-09-23T14:39:50.968Z,24.33
2018-09-23T14:42:03.314Z,24.39
2018-09-23T14:44:15.562Z,24.37
2018-09-23T14:46:27.763Z,24.37
2018-09-23T14:48:40.051Z,24.38
2018-09-23T14:50:52.309Z,24.41
2018-09-23T14:53:04.610Z,24.44
2018-09-23T14:55:18.888Z,24.43
2018-09-23T14:57:31.237Z,24.43
2018-09-23T14:59:43.526Z,24.45
2018-09-23T15:01:55.791Z,24.45
2018-09-23T15:04:08.115Z,24.43
2018-09-23T15:06:20.408Z,24.42
2018-09-23T15:08:32.727Z,24.40
2018-09-23T15:10:45.278Z,24.39
2018-09-23T15:12:57.623Z,24.40
2018-09-23T15:15:09.900Z,24.43
2018-09-23T15:17:22.183Z,24.44
2018-09-23T15:19:34.437Z,24.45
2018-09-23T15:21:46.699Z,24.43
2018-09-23T15:23:59.034Z,24.41
2018-09-23T15:26:11.348Z,24.41
2018-09-23T15:28:24.638Z,24.41
2018-09-23T15:30:36.914Z,24.38
2018-09-23T15:32:49.176Z,24.38
2018-09-23T15:35:01.468Z,24.42
2018-09-23T15:37:13.735Z,24.42
2018-09-23T15:39:26.018Z,24.48
2018-09-23T15:41:38.357Z,24.50
2018-09-23T15:43:50.627Z,24.52
2018-09-23T15:46:03.911Z,24.52
2018-09-23T15:48:16.242Z,24.53
2018-09-23T15:50:28.551Z,24.51
2018-09-23T15:52:40.910Z,24.50
2018-09-23T15:54:53.201Z,24.48
2018-09-23T15:57:07.395Z,24.48
2018-09-23T15:59:19.698Z,24.54
2018-09-23T16:01:32.129Z,24.58
2018-09-23T16:03:44.466Z,24.58
2018-09-23T16:05:56.782Z,24.58
2018-09-23T16:08:08.999Z,24.58
2018-09-23T16:10:21.483Z,24.48
2018-09-23T16:12:33.696Z,24.45
2018-09-23T16:14:45.957Z,24.44
2018-09-23T16:16:58.369Z,24.38
2018-09-23T16:19:10.679Z,24.34
2018-09-23T16:21:22.937Z,24.30
2018-09-23T16:23:35.229Z,24.26
2018-09-23T16:25:47.569Z,24.22
2018-09-23T16:27:59.808Z,24.10
2018-09-23T16:30:12.020Z,23.78
2018-09-23T16:32:24.356Z,23.37
2018-09-23T16:34:36.678Z,23.04
2018-09-23T16:36:48.910Z,22.71
2018-09-23T16:39:03.923Z,22.50
2018-09-23T16:41:20.801Z,22.32
2018-09-23T16:43:34.789Z,21.84
2018-09-23T16:45:50.897Z,20.69
2018-09-23T16:48:06.055Z,19.51
2018-09-23T16:50:20.346Z,18.93
2018-09-23T16:52:35.509Z,18.46
2018-09-23T16:54:50.105Z,18.22
2018-09-23T16:57:07.981Z,17.98
2018-09-23T16:59:23.591Z,17.78
2018-09-23T17:01:35.893Z,17.57
2018-09-23T17:03:48.195Z,17.44
2018-09-23T17:06:00.516Z,17.40
2018-09-23T17:08:15.748Z,17.45
2018-09-23T17:10:28.094Z,17.39
2018-09-23T17:12:40.522Z,17.33
2018-09-23T17:14:52.781Z,17.31
2018-09-23T17:17:05.102Z,17.34
2018-09-23T17:19:17.485Z,17.29
2018-09-23T17:21:29.783Z,17.21
2018-09-23T17:23:42.088Z,17.31
2018-09-23T17:25:54.495Z,17.28
2018-09-23T17:28:06.830Z,17.25
2018-09-23T17:30:19.182Z,17.17
2018-09-23T17:32:31.470Z,17.17
2018-09-23T17:34:43.763Z,17.19
2018-09-23T17:36:56.165Z,17.20
2018-09-23T17:39:09.526Z,17.21
2018-09-23T17:41:21.786Z,17.19
2018-09-23T17:43:34.072Z,17.18
2018-09-23T17:45:46.379Z,17.18
2018-09-23T17:47:58.710Z,17.20
2018-09-23T17:50:11.020Z,17.20
2018-09-23T17:52:23.322Z,17.14
2018-09-23T17:54:35.643Z,17.11
2018-09-23T17:56:47.955Z,17.07
2018-09-23T17:59:00.247Z,17.02
2018-09-23T18:01:12.522Z,16.99
2018-09-23T18:03:24.828Z,16.97
2018-09-23T18:05:37.112Z,16.96
2018-09-23T18:07:49.431Z,16.97
2018-09-23T18:10:01.737Z,16.96
2018-09-23T18:12:14.109Z,16.95
2018-09-23T18:14:26.379Z,16.93
2018-09-23T18:16:38.670Z,16.93
2018-09-23T18:18:51.094Z,16.75
2018-09-23T18:21:03.343Z,16.59
2018-09-23T18:23:15.641Z,16.35
2018-09-23T18:25:27.891Z,16.16
2018-09-23T18:27:40.205Z,15.96
2018-09-23T18:29:52.547Z,15.88
2018-09-23T18:32:04.831Z,15.63
2018-09-23T18:34:17.067Z,15.58
2018-09-23T18:36:29.451Z,15.57
2018-09-23T18:38:41.773Z,15.39
2018-09-23T18:40:54.105Z,15.30
2018-09-23T18:43:06.374Z,15.16
2018-09-23T18:45:18.681Z,15.21
2018-09-23T18:47:30.972Z,15.04
2018-09-23T18:49:43.302Z,14.96
2018-09-23T18:51:55.565Z,14.82
2018-09-23T18:54:13.425Z,14.73
2018-09-23T18:56:25.808Z,14.74
2018-09-23T18:58:38.078Z,14.66
2018-09-23T19:00:50.491Z,14.59
2018-09-23T19:03:02.855Z,14.51
2018-09-23T19:05:15.160Z,14.49
2018-09-23T19:07:27.439Z,14.46
2018-09-23T19:09:39.697Z,14.41
2018-09-23T19:11:52.128Z,14.30
2018-09-23T19:14:04.395Z,14.31
2018-09-23T19:16:22.491Z,14.24
2018-09-23T19:18:34.748Z,14.14
2018-09-23T19:20:47.116Z,14.14
2018-09-23T19:23:04.934Z,14.08
2018-09-23T19:25:17.281Z,14.01
2018-09-23T19:27:29.571Z,13.97
2018-09-23T19:29:41.807Z,13.87
2018-09-23T19:31:54.144Z,13.76
2018-09-23T19:34:06.411Z,13.74
2018-09-23T19:36:18.735Z,13.69
2018-09-23T19:40:42.801Z,13.53
2018-09-23T19:42:55.060Z,13.46
2018-09-23T19:45:07.313Z,13.48
2018-09-23T19:47:19.793Z,13.45
2018-09-23T19:49:32.047Z,13.39
2018-09-23T19:51:44.352Z,13.29
2018-09-23T19:53:56.595Z,13.33
2018-09-23T19:56:08.860Z,13.33
2018-09-23T19:58:21.128Z,13.31
2018-09-23T20:00:33.408Z,13.36
2018-09-23T20:02:45.667Z,13.35
2018-09-23T20:04:57.975Z,13.33
2018-09-23T20:07:10.287Z,13.27
2018-09-23T20:09:22.558Z,13.28
2018-09-23T20:11:34.855Z,13.27
2018-09-23T20:13:47.141Z,13.30
2018-09-23T20:15:59.403Z,13.26
2018-09-23T20:18:11.643Z,13.19
2018-09-23T20:20:23.914Z,13.19
2018-09-23T20:22:36.200Z,13.19
2018-09-23T20:24:48.467Z,13.13
2018-09-23T20:27:00.720Z,13.12
2018-09-23T20:29:12.995Z,13.07
2018-09-23T20:31:25.236Z,13.02
2018-09-23T20:33:37.531Z,12.96
2018-09-23T20:35:49.869Z,12.96
2018-09-23T20:38:02.095Z,12.97
2018-09-23T20:40:14.377Z,13.02
2018-09-23T20:42:26.669Z,13.00
2018-09-23T20:44:38.955Z,12.97
2018-09-23T20:46:51.656Z,12.96
2018-09-23T20:49:04.023Z,12.94
2018-09-23T20:51:16.304Z,12.91
2018-09-23T20:53:28.580Z,12.91
2018-09-23T20:55:40.864Z,12.88
2018-09-23T20:57:53.125Z,12.88
2018-09-23T21:00:05.492Z,12.85
2018-09-23T21:02:17.743Z,12.87
2018-09-23T21:04:30.079Z,12.89
2018-09-23T21:06:42.364Z,12.83
2018-09-23T21:08:54.590Z,12.80
2018-09-23T21:11:06.936Z,12.75
2018-09-23T21:13:19.207Z,12.70
2018-09-23T21:15:31.484Z,12.64
2018-09-23T21:17:43.699Z,12.66
2018-09-23T21:19:55.927Z,12.63
2018-09-23T21:22:08.146Z,12.67
2018-09-23T21:24:20.338Z,12.61
2018-09-23T21:26:32.611Z,12.60
2018-09-23T21:28:44.836Z,12.62
2018-09-23T21:30:57.129Z,12.67
2018-09-23T21:33:09.341Z,12.59
2018-09-23T21:35:21.594Z,12.54
2018-09-23T21:37:33.843Z,12.52
2018-09-23T21:39:46.049Z,12.45
2018-09-23T21:41:58.282Z,12.41
2018-09-23T21:44:10.584Z,12.42
2018-09-23T21:46:22.809Z,12.38
2018-09-23T21:48:35.059Z,12.34
2018-09-23T21:50:47.343Z,12.37
2018-09-23T21:52:59.580Z,12.36
2018-09-23T21:55:11.827Z,12.34
2018-09-23T21:57:24.147Z,12.34
2018-09-23T21:59:36.383Z,12.30
2018-09-23T22:01:48.628Z,12.28
2018-09-23T22:04:01.011Z,12.31
2018-09-23T22:06:13.245Z,12.31
2018-09-23T22:08:25.498Z,12.20
2018-09-23T22:10:37.761Z,12.23
2018-09-23T22:12:50.002Z,12.27
2018-09-23T22:15:02.333Z,12.19
2018-09-23T22:17:14.527Z,12.17
2018-09-23T22:19:26.763Z,12.11
2018-09-23T22:21:38.989Z,12.09
2018-09-23T22:23:51.229Z,12.15
2018-09-23T22:26:03.427Z,12.18
2018-09-23T22:28:15.640Z,12.21
2018-09-23T22:30:27.831Z,12.22
2018-09-23T22:32:40.035Z,12.23
2018-09-23T22:34:58.214Z,12.29
2018-09-23T22:37:10.415Z,12.27
2018-09-23T22:39:22.667Z,12.29
2018-09-23T22:41:34.884Z,12.26
2018-09-23T22:43:47.086Z,12.22
2018-09-23T22:45:59.289Z,12.26
2018-09-23T22:48:11.559Z,12.26
2018-09-23T22:50:23.996Z,12.25
2018-09-23T22:52:36.188Z,12.28
2018-09-23T22:54:48.439Z,12.21
2018-09-23T22:57:00.711Z,12.18
2018-09-23T22:59:12.928Z,12.20
2018-09-23T23:01:25.128Z,12.18
2018-09-23T23:03:37.335Z,12.12
2018-09-23T23:05:49.641Z,12.18
2018-09-23T23:08:01.882Z,12.17
2018-09-23T23:10:14.133Z,12.17
2018-09-23T23:12:26.326Z,12.15
2018-09-23T23:14:38.582Z,12.16
2018-09-23T23:16:50.783Z,12.14
2018-09-23T23:19:03.002Z,12.12
2018-09-23T23:21:15.216Z,12.14
2018-09-23T23:23:27.471Z,12.15
2018-09-23T23:25:39.725Z,12.14
2018-09-23T23:27:51.917Z,12.15
2018-09-23T23:30:04.264Z,12.18
2018-09-23T23:32:16.480Z,12.20
2018-09-23T23:34:28.743Z,12.19
2018-09-23T23:36:40.955Z,12.15
2018-09-23T23:38:53.181Z,12.16
2018-09-23T23:41:05.425Z,12.15
2018-09-23T23:43:17.616Z,12.09
2018-09-23T23:45:29.843Z,12.08
2018-09-23T23:47:42.060Z,12.08
2018-09-23T23:49:54.258Z,12.08
2018-09-23T23:52:06.511Z,12.09
2018-09-23T23:54:18.723Z,12.17
2018-09-23T23:56:30.967Z,12.07
2018-09-23T23:58:43.162Z,12.04
